sensor_id;sensor_type;location;lat;lon;timestamp;P1;durP1;ratioP1;P2;durP2;ratioP2
15327;SDS011;7764;51.430;6.840;2023-12-07T00:01:34;47.80;;;31.07;;
15327;SDS011;7764;51.430;6.840;2023-12-07T00:04:02;49.40;;;31.37;;
15327;SDS011;7764;51.430;6.840;2023-12-07T00:06:29;61.43;;;34.03;;
15327;SDS011;7764;51.430;6.840;2023-12-07T00:08:56;77.83;;;34.17;;
15327;SDS011;7764;51.430;6.840;2023-12-07T00:11:24;75.53;;;33.47;;
15327;SDS011;7764;51.430;6.840;2023-12-07T00:13:51;115.10;;;35.67;;
15327;SDS011;7764;51.430;6.840;2023-12-07T00:16:18;77.57;;;32.77;;
15327;SDS011;7764;51.430;6.840;2023-12-07T00:18:45;97.57;;;34.33;;
15327;SDS011;7764;51.430;6.840;2023-12-07T00:21:12;73.90;;;33.23;;
15327;SDS011;7764;51.430;6.840;2023-12-07T00:23:38;74.70;;;35.37;;
15327;SDS011;7764;51.430;6.840;2023-12-07T00:26:05;80.50;;;36.07;;
15327;SDS011;7764;51.430;6.840;2023-12-07T00:28:33;125.17;;;38.00;;
15327;SDS011;7764;51.430;6.840;2023-12-07T00:31:00;141.17;;;37.13;;
15327;SDS011;7764;51.430;6.840;2023-12-07T00:33:28;110.97;;;37.50;;
15327;SDS011;7764;51.430;6.840;2023-12-07T00:35:54;94.63;;;36.27;;
15327;SDS011;7764;51.430;6.840;2023-12-07T00:38:21;79.80;;;34.80;;
15327;SDS011;7764;51.430;6.840;2023-12-07T00:40:48;67.87;;;35.80;;
15327;SDS011;7764;51.430;6.840;2023-12-07T00:43:15;79.30;;;34.17;;
15327;SDS011;7764;51.430;6.840;2023-12-07T00:45:44;89.60;;;36.13;;
15327;SDS011;7764;51.430;6.840;2023-12-07T00:48:11;86.33;;;34.90;;
15327;SDS011;7764;51.430;6.840;2023-12-07T00:50:38;75.93;;;33.70;;
15327;SDS011;7764;51.430;6.840;2023-12-07T00:53:04;92.27;;;33.53;;
15327;SDS011;7764;51.430;6.840;2023-12-07T00:55:31;81.80;;;33.27;;
15327;SDS011;7764;51.430;6.840;2023-12-07T00:57:58;91.10;;;32.83;;
15327;SDS011;7764;51.430;6.840;2023-12-07T01:00:26;89.47;;;33.13;;
15327;SDS011;7764;51.430;6.840;2023-12-07T01:02:54;119.50;;;33.80;;
15327;SDS011;7764;51.430;6.840;2023-12-07T01:05:22;119.00;;;32.87;;
15327;SDS011;7764;51.430;6.840;2023-12-07T01:07:48;111.87;;;33.10;;
15327;SDS011;7764;51.430;6.840;2023-12-07T01:10:15;118.27;;;33.20;;
15327;SDS011;7764;51.430;6.840;2023-12-07T01:12:42;131.37;;;34.00;;
15327;SDS011;7764;51.430;6.840;2023-12-07T01:15:09;129.83;;;35.90;;
15327;SDS011;7764;51.430;6.840;2023-12-07T01:17:36;142.10;;;34.10;;
15327;SDS011;7764;51.430;6.840;2023-12-07T01:20:05;108.40;;;32.97;;
15327;SDS011;7764;51.430;6.840;2023-12-07T01:22:37;123.83;;;36.17;;
15327;SDS011;7764;51.430;6.840;2023-12-07T01:25:05;135.93;;;36.40;;
15327;SDS011;7764;51.430;6.840;2023-12-07T01:27:32;130.77;;;35.77;;
15327;SDS011;7764;51.430;6.840;2023-12-07T01:29:59;110.60;;;35.43;;
15327;SDS011;7764;51.430;6.840;2023-12-07T01:32:26;89.33;;;34.30;;
15327;SDS011;7764;51.430;6.840;2023-12-07T01:34:53;92.63;;;34.50;;
15327;SDS011;7764;51.430;6.840;2023-12-07T01:37:21;109.73;;;35.57;;
15327;SDS011;7764;51.430;6.840;2023-12-07T01:39:48;144.93;;;37.33;;
15327;SDS011;7764;51.430;6.840;2023-12-07T01:42:15;216.27;;;39.83;;
15327;SDS011;7764;51.430;6.840;2023-12-07T01:44:42;128.20;;;38.53;;
15327;SDS011;7764;51.430;6.840;2023-12-07T01:47:09;165.60;;;38.97;;
15327;SDS011;7764;51.430;6.840;2023-12-07T01:49:36;171.60;;;38.93;;
15327;SDS011;7764;51.430;6.840;2023-12-07T01:52:04;238.97;;;40.23;;
15327;SDS011;7764;51.430;6.840;2023-12-07T01:54:33;237.07;;;42.70;;
15327;SDS011;7764;51.430;6.840;2023-12-07T01:57:01;472.13;;;47.57;;
15327;SDS011;7764;51.430;6.840;2023-12-07T01:59:28;247.90;;;42.77;;
15327;SDS011;7764;51.430;6.840;2023-12-07T02:01:55;201.00;;;41.30;;
15327;SDS011;7764;51.430;6.840;2023-12-07T02:04:22;179.13;;;40.87;;
15327;SDS011;7764;51.430;6.840;2023-12-07T02:06:49;165.07;;;41.13;;
15327;SDS011;7764;51.430;6.840;2023-12-07T02:09:16;168.53;;;42.17;;
15327;SDS011;7764;51.430;6.840;2023-12-07T02:11:44;289.03;;;43.33;;
15327;SDS011;7764;51.430;6.840;2023-12-07T02:14:11;170.07;;;40.60;;
15327;SDS011;7764;51.430;6.840;2023-12-07T02:16:39;153.47;;;40.40;;
15327;SDS011;7764;51.430;6.840;2023-12-07T02:19:13;157.47;;;39.90;;
15327;SDS011;7764;51.430;6.840;2023-12-07T02:21:52;99.17;;;38.47;;
15327;SDS011;7764;51.430;6.840;2023-12-07T02:24:22;139.77;;;39.43;;
15327;SDS011;7764;51.430;6.840;2023-12-07T02:26:54;135.07;;;39.43;;
15327;SDS011;7764;51.430;6.840;2023-12-07T02:29:21;107.90;;;38.90;;
15327;SDS011;7764;51.430;6.840;2023-12-07T02:31:48;127.13;;;40.33;;
15327;SDS011;7764;51.430;6.840;2023-12-07T02:34:15;153.63;;;40.33;;
15327;SDS011;7764;51.430;6.840;2023-12-07T02:36:42;94.83;;;38.47;;
15327;SDS011;7764;51.430;6.840;2023-12-07T02:39:10;107.13;;;38.17;;
15327;SDS011;7764;51.430;6.840;2023-12-07T02:41:38;113.90;;;40.10;;
15327;SDS011;7764;51.430;6.840;2023-12-07T02:44:08;75.00;;;38.17;;
15327;SDS011;7764;51.430;6.840;2023-12-07T02:46:35;70.03;;;37.70;;
15327;SDS011;7764;51.430;6.840;2023-12-07T02:49:02;87.53;;;38.87;;
15327;SDS011;7764;51.430;6.840;2023-12-07T02:51:29;82.07;;;38.20;;
15327;SDS011;7764;51.430;6.840;2023-12-07T02:53:56;65.03;;;37.83;;
15327;SDS011;7764;51.430;6.840;2023-12-07T02:56:23;66.93;;;39.50;;
15327;SDS011;7764;51.430;6.840;2023-12-07T02:58:50;62.73;;;37.43;;
15327;SDS011;7764;51.430;6.840;2023-12-07T03:01:18;64.97;;;37.47;;
15327;SDS011;7764;51.430;6.840;2023-12-07T03:03:45;66.90;;;38.13;;
15327;SDS011;7764;51.430;6.840;2023-12-07T03:06:12;68.87;;;38.03;;
15327;SDS011;7764;51.430;6.840;2023-12-07T03:08:40;66.33;;;37.93;;
15327;SDS011;7764;51.430;6.840;2023-12-07T03:11:07;63.90;;;37.03;;
15327;SDS011;7764;51.430;6.840;2023-12-07T03:13:34;62.87;;;36.73;;
15327;SDS011;7764;51.430;6.840;2023-12-07T03:16:01;65.63;;;38.67;;
15327;SDS011;7764;51.430;6.840;2023-12-07T03:18:29;72.47;;;39.70;;
15327;SDS011;7764;51.430;6.840;2023-12-07T03:20:56;69.23;;;38.97;;
15327;SDS011;7764;51.430;6.840;2023-12-07T03:23:22;71.43;;;39.37;;
15327;SDS011;7764;51.430;6.840;2023-12-07T03:25:48;93.27;;;52.10;;
15327;SDS011;7764;51.430;6.840;2023-12-07T03:28:15;84.17;;;45.97;;
15327;SDS011;7764;51.430;6.840;2023-12-07T03:30:42;87.27;;;47.57;;
15327;SDS011;7764;51.430;6.840;2023-12-07T03:33:09;73.83;;;39.70;;
15327;SDS011;7764;51.430;6.840;2023-12-07T03:35:37;80.13;;;40.23;;
15327;SDS011;7764;51.430;6.840;2023-12-07T03:38:04;81.83;;;40.50;;
15327;SDS011;7764;51.430;6.840;2023-12-07T03:40:31;82.30;;;40.83;;
15327;SDS011;7764;51.430;6.840;2023-12-07T03:42:58;79.30;;;40.37;;
15327;SDS011;7764;51.430;6.840;2023-12-07T03:45:25;80.57;;;39.67;;
15327;SDS011;7764;51.430;6.840;2023-12-07T03:47:53;77.10;;;39.27;;
15327;SDS011;7764;51.430;6.840;2023-12-07T03:50:20;81.03;;;40.43;;
15327;SDS011;7764;51.430;6.840;2023-12-07T03:52:48;83.77;;;39.83;;
15327;SDS011;7764;51.430;6.840;2023-12-07T03:55:15;83.77;;;40.63;;
15327;SDS011;7764;51.430;6.840;2023-12-07T03:57:42;83.57;;;40.37;;
15327;SDS011;7764;51.430;6.840;2023-12-07T04:00:10;83.40;;;41.33;;
15327;SDS011;7764;51.430;6.840;2023-12-07T04:02:38;81.33;;;39.10;;
15327;SDS011;7764;51.430;6.840;2023-12-07T04:05:05;86.07;;;40.70;;
15327;SDS011;7764;51.430;6.840;2023-12-07T04:07:32;83.73;;;40.43;;
15327;SDS011;7764;51.430;6.840;2023-12-07T04:10:00;77.50;;;38.20;;
15327;SDS011;7764;51.430;6.840;2023-12-07T04:12:30;87.67;;;39.53;;
15327;SDS011;7764;51.430;6.840;2023-12-07T04:14:57;83.73;;;41.10;;
15327;SDS011;7764;51.430;6.840;2023-12-07T04:17:24;78.87;;;39.30;;
15327;SDS011;7764;51.430;6.840;2023-12-07T04:19:50;86.47;;;40.87;;
15327;SDS011;7764;51.430;6.840;2023-12-07T04:22:17;79.53;;;39.60;;
15327;SDS011;7764;51.430;6.840;2023-12-07T04:24:44;84.90;;;40.77;;
15327;SDS011;7764;51.430;6.840;2023-12-07T04:27:12;78.93;;;40.33;;
15327;SDS011;7764;51.430;6.840;2023-12-07T04:29:39;90.50;;;42.90;;
15327;SDS011;7764;51.430;6.840;2023-12-07T04:32:06;87.67;;;40.13;;
15327;SDS011;7764;51.430;6.840;2023-12-07T04:34:34;86.00;;;41.03;;
15327;SDS011;7764;51.430;6.840;2023-12-07T04:37:01;84.57;;;40.17;;
15327;SDS011;7764;51.430;6.840;2023-12-07T04:39:28;78.87;;;39.63;;
15327;SDS011;7764;51.430;6.840;2023-12-07T04:41:54;79.47;;;40.83;;
15327;SDS011;7764;51.430;6.840;2023-12-07T04:44:23;79.90;;;40.13;;
15327;SDS011;7764;51.430;6.840;2023-12-07T04:46:50;79.47;;;40.23;;
15327;SDS011;7764;51.430;6.840;2023-12-07T04:49:17;74.37;;;38.80;;
15327;SDS011;7764;51.430;6.840;2023-12-07T04:51:44;79.10;;;40.17;;
15327;SDS011;7764;51.430;6.840;2023-12-07T04:54:11;76.60;;;39.53;;
15327;SDS011;7764;51.430;6.840;2023-12-07T04:56:39;79.50;;;40.13;;
15327;SDS011;7764;51.430;6.840;2023-12-07T04:59:06;79.77;;;40.97;;
15327;SDS011;7764;51.430;6.840;2023-12-07T05:01:34;82.37;;;41.00;;
15327;SDS011;7764;51.430;6.840;2023-12-07T05:04:01;77.03;;;39.60;;
15327;SDS011;7764;51.430;6.840;2023-12-07T05:06:30;80.67;;;40.50;;
15327;SDS011;7764;51.430;6.840;2023-12-07T05:08:57;79.20;;;39.93;;
15327;SDS011;7764;51.430;6.840;2023-12-07T05:11:23;75.60;;;38.97;;
15327;SDS011;7764;51.430;6.840;2023-12-07T05:13:50;79.60;;;39.37;;
15327;SDS011;7764;51.430;6.840;2023-12-07T05:16:17;79.87;;;39.47;;
15327;SDS011;7764;51.430;6.840;2023-12-07T05:18:45;84.67;;;40.93;;
15327;SDS011;7764;51.430;6.840;2023-12-07T05:21:12;77.40;;;39.30;;
15327;SDS011;7764;51.430;6.840;2023-12-07T05:23:39;76.30;;;40.40;;
15327;SDS011;7764;51.430;6.840;2023-12-07T05:26:06;79.90;;;39.03;;
15327;SDS011;7764;51.430;6.840;2023-12-07T05:28:33;79.23;;;41.20;;
15327;SDS011;7764;51.430;6.840;2023-12-07T05:31:03;84.17;;;41.03;;
15327;SDS011;7764;51.430;6.840;2023-12-07T05:33:30;74.73;;;40.33;;
15327;SDS011;7764;51.430;6.840;2023-12-07T05:35:58;74.03;;;39.93;;
15327;SDS011;7764;51.430;6.840;2023-12-07T05:38:25;78.77;;;42.17;;
15327;SDS011;7764;51.430;6.840;2023-12-07T05:40:52;81.03;;;42.73;;
15327;SDS011;7764;51.430;6.840;2023-12-07T05:43:19;80.17;;;42.00;;
15327;SDS011;7764;51.430;6.840;2023-12-07T05:45:46;72.23;;;40.47;;
15327;SDS011;7764;51.430;6.840;2023-12-07T05:48:12;81.87;;;42.00;;
15327;SDS011;7764;51.430;6.840;2023-12-07T05:50:39;76.90;;;40.67;;
15327;SDS011;7764;51.430;6.840;2023-12-07T05:53:07;78.90;;;43.63;;
15327;SDS011;7764;51.430;6.840;2023-12-07T05:55:35;72.17;;;39.53;;
15327;SDS011;7764;51.430;6.840;2023-12-07T05:58:02;81.13;;;44.63;;
15327;SDS011;7764;51.430;6.840;2023-12-07T06:00:29;77.93;;;41.37;;
15327;SDS011;7764;51.430;6.840;2023-12-07T06:02:56;92.90;;;49.67;;
15327;SDS011;7764;51.430;6.840;2023-12-07T06:05:24;79.80;;;41.93;;
15327;SDS011;7764;51.430;6.840;2023-12-07T06:07:51;75.67;;;41.30;;
15327;SDS011;7764;51.430;6.840;2023-12-07T06:10:20;79.00;;;41.87;;
15327;SDS011;7764;51.430;6.840;2023-12-07T06:12:48;83.27;;;40.73;;
15327;SDS011;7764;51.430;6.840;2023-12-07T06:15:14;76.70;;;41.43;;
15327;SDS011;7764;51.430;6.840;2023-12-07T06:17:41;79.47;;;41.70;;
15327;SDS011;7764;51.430;6.840;2023-12-07T06:20:09;78.17;;;41.20;;
15327;SDS011;7764;51.430;6.840;2023-12-07T06:22:36;79.80;;;43.83;;
15327;SDS011;7764;51.430;6.840;2023-12-07T06:25:04;86.23;;;43.03;;
15327;SDS011;7764;51.430;6.840;2023-12-07T06:27:34;80.73;;;43.67;;
15327;SDS011;7764;51.430;6.840;2023-12-07T06:30:02;78.87;;;42.43;;
15327;SDS011;7764;51.430;6.840;2023-12-07T06:32:30;78.37;;;42.17;;
15327;SDS011;7764;51.430;6.840;2023-12-07T06:34:57;76.23;;;42.27;;
15327;SDS011;7764;51.430;6.840;2023-12-07T06:37:24;75.30;;;41.63;;
15327;SDS011;7764;51.430;6.840;2023-12-07T06:39:51;77.00;;;41.43;;
15327;SDS011;7764;51.430;6.840;2023-12-07T06:42:18;81.63;;;41.93;;
15327;SDS011;7764;51.430;6.840;2023-12-07T06:44:47;77.53;;;42.20;;
15327;SDS011;7764;51.430;6.840;2023-12-07T06:47:14;73.87;;;41.07;;
15327;SDS011;7764;51.430;6.840;2023-12-07T06:49:41;74.10;;;39.87;;
15327;SDS011;7764;51.430;6.840;2023-12-07T06:52:08;75.73;;;40.90;;
15327;SDS011;7764;51.430;6.840;2023-12-07T06:54:36;88.47;;;46.80;;
15327;SDS011;7764;51.430;6.840;2023-12-07T06:57:03;84.37;;;44.50;;
15327;SDS011;7764;51.430;6.840;2023-12-07T06:59:31;76.97;;;41.07;;
15327;SDS011;7764;51.430;6.840;2023-12-07T07:01:59;78.67;;;42.30;;
15327;SDS011;7764;51.430;6.840;2023-12-07T07:04:25;70.73;;;38.97;;
15327;SDS011;7764;51.430;6.840;2023-12-07T07:06:52;71.40;;;38.77;;
15327;SDS011;7764;51.430;6.840;2023-12-07T07:09:19;72.73;;;40.03;;
15327;SDS011;7764;51.430;6.840;2023-12-07T07:11:46;75.57;;;41.00;;
15327;SDS011;7764;51.430;6.840;2023-12-07T07:14:13;68.37;;;37.50;;
15327;SDS011;7764;51.430;6.840;2023-12-07T07:16:40;74.37;;;38.57;;
15327;SDS011;7764;51.430;6.840;2023-12-07T07:19:09;75.60;;;38.00;;
15327;SDS011;7764;51.430;6.840;2023-12-07T07:21:36;71.77;;;39.00;;
15327;SDS011;7764;51.430;6.840;2023-12-07T07:24:03;72.57;;;39.03;;
15327;SDS011;7764;51.430;6.840;2023-12-07T07:26:30;68.10;;;38.13;;
15327;SDS011;7764;51.430;6.840;2023-12-07T07:28:57;66.50;;;37.90;;
15327;SDS011;7764;51.430;6.840;2023-12-07T07:31:24;72.73;;;38.57;;
15327;SDS011;7764;51.430;6.840;2023-12-07T07:33:51;73.83;;;39.23;;
15327;SDS011;7764;51.430;6.840;2023-12-07T07:36:19;72.27;;;37.83;;
15327;SDS011;7764;51.430;6.840;2023-12-07T07:38:46;67.40;;;36.60;;
15327;SDS011;7764;51.430;6.840;2023-12-07T07:41:13;70.83;;;36.37;;
15327;SDS011;7764;51.430;6.840;2023-12-07T07:43:40;70.53;;;37.10;;
15327;SDS011;7764;51.430;6.840;2023-12-07T07:46:08;65.30;;;35.97;;
15327;SDS011;7764;51.430;6.840;2023-12-07T07:48:34;69.57;;;38.83;;
15327;SDS011;7764;51.430;6.840;2023-12-07T07:51:02;68.67;;;36.10;;
15327;SDS011;7764;51.430;6.840;2023-12-07T07:53:30;66.93;;;36.03;;
15327;SDS011;7764;51.430;6.840;2023-12-07T07:55:57;68.40;;;36.17;;
15327;SDS011;7764;51.430;6.840;2023-12-07T07:58:24;62.17;;;35.00;;
15327;SDS011;7764;51.430;6.840;2023-12-07T08:00:51;62.20;;;34.63;;
15327;SDS011;7764;51.430;6.840;2023-12-07T08:03:18;60.53;;;33.97;;
15327;SDS011;7764;51.430;6.840;2023-12-07T08:05:45;57.47;;;32.47;;
15327;SDS011;7764;51.430;6.840;2023-12-07T08:08:12;60.13;;;33.27;;
15327;SDS011;7764;51.430;6.840;2023-12-07T08:10:40;54.83;;;32.20;;
15327;SDS011;7764;51.430;6.840;2023-12-07T08:13:07;59.27;;;32.67;;
15327;SDS011;7764;51.430;6.840;2023-12-07T08:15:33;65.33;;;34.47;;
15327;SDS011;7764;51.430;6.840;2023-12-07T08:18:00;51.23;;;30.63;;
15327;SDS011;7764;51.430;6.840;2023-12-07T08:20:28;52.17;;;29.10;;
15327;SDS011;7764;51.430;6.840;2023-12-07T08:22:55;52.67;;;31.17;;
15327;SDS011;7764;51.430;6.840;2023-12-07T08:25:21;52.07;;;30.33;;
15327;SDS011;7764;51.430;6.840;2023-12-07T08:27:50;52.50;;;29.50;;
15327;SDS011;7764;51.430;6.840;2023-12-07T08:30:16;54.73;;;30.30;;
15327;SDS011;7764;51.430;6.840;2023-12-07T08:32:44;49.97;;;28.13;;
15327;SDS011;7764;51.430;6.840;2023-12-07T08:35:11;47.30;;;29.13;;
15327;SDS011;7764;51.430;6.840;2023-12-07T08:37:38;53.00;;;31.03;;
15327;SDS011;7764;51.430;6.840;2023-12-07T08:40:05;45.43;;;27.57;;
15327;SDS011;7764;51.430;6.840;2023-12-07T08:42:32;43.67;;;28.43;;
15327;SDS011;7764;51.430;6.840;2023-12-07T08:45:01;45.03;;;28.03;;
15327;SDS011;7764;51.430;6.840;2023-12-07T08:47:28;42.20;;;26.43;;
15327;SDS011;7764;51.430;6.840;2023-12-07T08:49:56;56.97;;;35.33;;
15327;SDS011;7764;51.430;6.840;2023-12-07T08:52:23;41.33;;;27.40;;
15327;SDS011;7764;51.430;6.840;2023-12-07T08:54:50;40.00;;;25.17;;
15327;SDS011;7764;51.430;6.840;2023-12-07T08:57:17;41.07;;;25.50;;
15327;SDS011;7764;51.430;6.840;2023-12-07T08:59:44;50.23;;;30.40;;
15327;SDS011;7764;51.430;6.840;2023-12-07T09:02:12;84.87;;;46.87;;
15327;SDS011;7764;51.430;6.840;2023-12-07T09:04:39;43.27;;;27.27;;
15327;SDS011;7764;51.430;6.840;2023-12-07T09:07:06;35.50;;;22.67;;
15327;SDS011;7764;51.430;6.840;2023-12-07T09:09:34;37.17;;;22.63;;
15327;SDS011;7764;51.430;6.840;2023-12-07T09:12:01;36.50;;;22.33;;
15327;SDS011;7764;51.430;6.840;2023-12-07T09:14:28;35.60;;;22.30;;
15327;SDS011;7764;51.430;6.840;2023-12-07T09:16:55;34.73;;;21.40;;
15327;SDS011;7764;51.430;6.840;2023-12-07T09:19:23;38.70;;;22.40;;
15327;SDS011;7764;51.430;6.840;2023-12-07T09:21:50;35.23;;;21.70;;
15327;SDS011;7764;51.430;6.840;2023-12-07T09:24:17;34.87;;;21.67;;
15327;SDS011;7764;51.430;6.840;2023-12-07T09:26:44;32.13;;;20.30;;
15327;SDS011;7764;51.430;6.840;2023-12-07T09:29:13;29.57;;;19.77;;
15327;SDS011;7764;51.430;6.840;2023-12-07T09:31:40;85.57;;;50.13;;
15327;SDS011;7764;51.430;6.840;2023-12-07T09:34:06;38.37;;;25.93;;
15327;SDS011;7764;51.430;6.840;2023-12-07T09:36:35;38.43;;;23.57;;
15327;SDS011;7764;51.430;6.840;2023-12-07T09:39:02;30.17;;;19.80;;
15327;SDS011;7764;51.430;6.840;2023-12-07T09:41:29;33.50;;;20.83;;
15327;SDS011;7764;51.430;6.840;2023-12-07T09:43:56;29.87;;;19.20;;
15327;SDS011;7764;51.430;6.840;2023-12-07T09:46:25;29.40;;;18.87;;
15327;SDS011;7764;51.430;6.840;2023-12-07T09:48:53;29.30;;;17.90;;
15327;SDS011;7764;51.430;6.840;2023-12-07T09:51:20;27.17;;;18.77;;
15327;SDS011;7764;51.430;6.840;2023-12-07T09:53:49;33.97;;;19.80;;
15327;SDS011;7764;51.430;6.840;2023-12-07T09:56:19;36.83;;;25.50;;
15327;SDS011;7764;51.430;6.840;2023-12-07T09:58:46;28.67;;;17.63;;
15327;SDS011;7764;51.430;6.840;2023-12-07T10:01:13;37.07;;;24.63;;
15327;SDS011;7764;51.430;6.840;2023-12-07T10:03:40;32.00;;;19.33;;
15327;SDS011;7764;51.430;6.840;2023-12-07T10:06:08;26.43;;;16.17;;
15327;SDS011;7764;51.430;6.840;2023-12-07T10:08:34;26.03;;;16.63;;
15327;SDS011;7764;51.430;6.840;2023-12-07T10:11:04;31.00;;;19.70;;
15327;SDS011;7764;51.430;6.840;2023-12-07T10:13:32;27.43;;;16.50;;
15327;SDS011;7764;51.430;6.840;2023-12-07T10:16:07;26.50;;;17.47;;
15327;SDS011;7764;51.430;6.840;2023-12-07T10:18:35;27.50;;;17.53;;
15327;SDS011;7764;51.430;6.840;2023-12-07T10:21:02;28.63;;;16.77;;
15327;SDS011;7764;51.430;6.840;2023-12-07T10:23:29;28.60;;;18.37;;
15327;SDS011;7764;51.430;6.840;2023-12-07T10:25:57;29.70;;;17.57;;
15327;SDS011;7764;51.430;6.840;2023-12-07T10:28:26;26.67;;;17.87;;
15327;SDS011;7764;51.430;6.840;2023-12-07T10:30:53;28.77;;;17.83;;
15327;SDS011;7764;51.430;6.840;2023-12-07T10:33:39;27.37;;;18.07;;
15327;SDS011;7764;51.430;6.840;2023-12-07T10:36:08;27.73;;;18.13;;
15327;SDS011;7764;51.430;6.840;2023-12-07T10:38:35;25.47;;;16.80;;
15327;SDS011;7764;51.430;6.840;2023-12-07T10:41:04;27.13;;;18.10;;
15327;SDS011;7764;51.430;6.840;2023-12-07T10:43:33;29.10;;;18.27;;
15327;SDS011;7764;51.430;6.840;2023-12-07T10:46:03;29.13;;;18.20;;
15327;SDS011;7764;51.430;6.840;2023-12-07T10:48:32;30.20;;;17.53;;
15327;SDS011;7764;51.430;6.840;2023-12-07T10:51:02;27.00;;;16.40;;
15327;SDS011;7764;51.430;6.840;2023-12-07T10:53:37;26.93;;;16.83;;
15327;SDS011;7764;51.430;6.840;2023-12-07T10:56:10;25.87;;;17.60;;
15327;SDS011;7764;51.430;6.840;2023-12-07T10:58:40;28.87;;;17.27;;
15327;SDS011;7764;51.430;6.840;2023-12-07T11:01:08;25.57;;;16.90;;
15327;SDS011;7764;51.430;6.840;2023-12-07T11:03:36;27.50;;;17.63;;
15327;SDS011;7764;51.430;6.840;2023-12-07T11:06:07;24.33;;;15.13;;
15327;SDS011;7764;51.430;6.840;2023-12-07T11:08:36;25.40;;;16.17;;
15327;SDS011;7764;51.430;6.840;2023-12-07T11:11:07;26.30;;;16.70;;
15327;SDS011;7764;51.430;6.840;2023-12-07T11:13:38;27.13;;;17.83;;
15327;SDS011;7764;51.430;6.840;2023-12-07T11:16:13;58.13;;;33.20;;
15327;SDS011;7764;51.430;6.840;2023-12-07T11:18:40;28.50;;;17.13;;
15327;SDS011;7764;51.430;6.840;2023-12-07T11:21:08;22.63;;;15.50;;
15327;SDS011;7764;51.430;6.840;2023-12-07T11:23:36;25.90;;;16.57;;
15327;SDS011;7764;51.430;6.840;2023-12-07T11:26:03;23.23;;;15.07;;
15327;SDS011;7764;51.430;6.840;2023-12-07T11:28:36;23.17;;;15.20;;
15327;SDS011;7764;51.430;6.840;2023-12-07T11:31:05;24.00;;;16.40;;
15327;SDS011;7764;51.430;6.840;2023-12-07T11:33:32;23.67;;;15.47;;
15327;SDS011;7764;51.430;6.840;2023-12-07T11:36:03;25.80;;;16.67;;
15327;SDS011;7764;51.430;6.840;2023-12-07T11:38:32;23.13;;;15.47;;
15327;SDS011;7764;51.430;6.840;2023-12-07T11:40:59;23.93;;;16.87;;
15327;SDS011;7764;51.430;6.840;2023-12-07T11:43:36;24.60;;;16.53;;
15327;SDS011;7764;51.430;6.840;2023-12-07T11:46:08;27.50;;;18.07;;
15327;SDS011;7764;51.430;6.840;2023-12-07T11:48:36;24.70;;;16.13;;
15327;SDS011;7764;51.430;6.840;2023-12-07T11:51:03;26.50;;;17.80;;
15327;SDS011;7764;51.430;6.840;2023-12-07T11:53:33;26.43;;;17.80;;
15327;SDS011;7764;51.430;6.840;2023-12-07T11:56:01;26.93;;;15.70;;
15327;SDS011;7764;51.430;6.840;2023-12-07T11:58:29;23.57;;;15.10;;
15327;SDS011;7764;51.430;6.840;2023-12-07T12:00:57;24.40;;;16.77;;
15327;SDS011;7764;51.430;6.840;2023-12-07T12:03:24;22.90;;;15.73;;
15327;SDS011;7764;51.430;6.840;2023-12-07T12:05:51;24.60;;;16.03;;
15327;SDS011;7764;51.430;6.840;2023-12-07T12:08:19;24.83;;;15.27;;
15327;SDS011;7764;51.430;6.840;2023-12-07T12:10:48;23.67;;;16.83;;
15327;SDS011;7764;51.430;6.840;2023-12-07T12:13:17;23.87;;;15.73;;
15327;SDS011;7764;51.430;6.840;2023-12-07T12:15:45;25.07;;;15.70;;
15327;SDS011;7764;51.430;6.840;2023-12-07T12:18:12;25.47;;;16.60;;
15327;SDS011;7764;51.430;6.840;2023-12-07T12:20:39;26.33;;;15.97;;
15327;SDS011;7764;51.430;6.840;2023-12-07T12:23:07;26.80;;;17.47;;
15327;SDS011;7764;51.430;6.840;2023-12-07T12:25:34;24.47;;;15.20;;
15327;SDS011;7764;51.430;6.840;2023-12-07T12:28:03;24.97;;;15.90;;
15327;SDS011;7764;51.430;6.840;2023-12-07T12:30:32;22.67;;;15.13;;
15327;SDS011;7764;51.430;6.840;2023-12-07T12:32:59;25.67;;;14.83;;
15327;SDS011;7764;51.430;6.840;2023-12-07T12:35:26;23.07;;;14.97;;
15327;SDS011;7764;51.430;6.840;2023-12-07T12:37:54;22.77;;;15.00;;
15327;SDS011;7764;51.430;6.840;2023-12-07T12:40:22;23.53;;;15.90;;
15327;SDS011;7764;51.430;6.840;2023-12-07T12:42:49;24.33;;;15.00;;
15327;SDS011;7764;51.430;6.840;2023-12-07T12:45:19;45.63;;;29.80;;
15327;SDS011;7764;51.430;6.840;2023-12-07T12:47:46;42.03;;;30.87;;
15327;SDS011;7764;51.430;6.840;2023-12-07T12:52:59;24.93;;;15.23;;
15327;SDS011;7764;51.430;6.840;2023-12-07T12:55:30;23.50;;;15.63;;
15327;SDS011;7764;51.430;6.840;2023-12-07T12:57:57;25.70;;;15.20;;
15327;SDS011;7764;51.430;6.840;2023-12-07T13:00:25;23.30;;;14.73;;
15327;SDS011;7764;51.430;6.840;2023-12-07T13:02:52;21.30;;;14.20;;
15327;SDS011;7764;51.430;6.840;2023-12-07T13:05:19;22.07;;;14.43;;
15327;SDS011;7764;51.430;6.840;2023-12-07T13:07:46;23.03;;;14.83;;
15327;SDS011;7764;51.430;6.840;2023-12-07T13:10:13;24.87;;;15.67;;
15327;SDS011;7764;51.430;6.840;2023-12-07T13:12:40;23.83;;;14.40;;
15327;SDS011;7764;51.430;6.840;2023-12-07T13:15:08;44.40;;;26.93;;
15327;SDS011;7764;51.430;6.840;2023-12-07T13:17:37;29.50;;;18.83;;
15327;SDS011;7764;51.430;6.840;2023-12-07T13:20:04;27.40;;;17.47;;
15327;SDS011;7764;51.430;6.840;2023-12-07T13:22:32;22.07;;;13.87;;
15327;SDS011;7764;51.430;6.840;2023-12-07T13:24:59;22.03;;;14.37;;
15327;SDS011;7764;51.430;6.840;2023-12-07T13:27:27;22.70;;;14.43;;
15327;SDS011;7764;51.430;6.840;2023-12-07T13:29:54;20.27;;;13.40;;
15327;SDS011;7764;51.430;6.840;2023-12-07T13:32:21;21.60;;;13.53;;
15327;SDS011;7764;51.430;6.840;2023-12-07T13:34:53;20.53;;;13.93;;
15327;SDS011;7764;51.430;6.840;2023-12-07T13:37:20;25.03;;;16.33;;
15327;SDS011;7764;51.430;6.840;2023-12-07T13:39:49;22.87;;;14.03;;
15327;SDS011;7764;51.430;6.840;2023-12-07T13:42:22;23.77;;;13.90;;
15327;SDS011;7764;51.430;6.840;2023-12-07T13:44:51;21.10;;;13.87;;
15327;SDS011;7764;51.430;6.840;2023-12-07T13:47:19;19.97;;;13.47;;
15327;SDS011;7764;51.430;6.840;2023-12-07T13:49:48;19.03;;;12.43;;
15327;SDS011;7764;51.430;6.840;2023-12-07T13:52:16;21.57;;;13.27;;
15327;SDS011;7764;51.430;6.840;2023-12-07T13:54:43;23.40;;;13.33;;
15327;SDS011;7764;51.430;6.840;2023-12-07T13:57:10;20.17;;;13.10;;
15327;SDS011;7764;51.430;6.840;2023-12-07T13:59:37;20.40;;;12.70;;
15327;SDS011;7764;51.430;6.840;2023-12-07T14:02:05;18.03;;;12.47;;
15327;SDS011;7764;51.430;6.840;2023-12-07T14:04:32;20.90;;;12.57;;
15327;SDS011;7764;51.430;6.840;2023-12-07T14:07:06;20.57;;;12.90;;
15327;SDS011;7764;51.430;6.840;2023-12-07T14:09:36;20.77;;;13.27;;
15327;SDS011;7764;51.430;6.840;2023-12-07T14:12:03;18.83;;;11.50;;
15327;SDS011;7764;51.430;6.840;2023-12-07T14:14:30;19.87;;;11.93;;
15327;SDS011;7764;51.430;6.840;2023-12-07T14:16:57;40.70;;;25.93;;
15327;SDS011;7764;51.430;6.840;2023-12-07T14:19:24;36.27;;;23.23;;
15327;SDS011;7764;51.430;6.840;2023-12-07T14:21:51;21.20;;;13.00;;
15327;SDS011;7764;51.430;6.840;2023-12-07T14:24:19;21.43;;;13.80;;
15327;SDS011;7764;51.430;6.840;2023-12-07T14:26:48;23.37;;;14.93;;
15327;SDS011;7764;51.430;6.840;2023-12-07T14:29:15;19.47;;;13.30;;
15327;SDS011;7764;51.430;6.840;2023-12-07T14:31:43;18.03;;;12.27;;
15327;SDS011;7764;51.430;6.840;2023-12-07T14:34:10;21.47;;;14.03;;
15327;SDS011;7764;51.430;6.840;2023-12-07T14:36:38;19.77;;;12.93;;
15327;SDS011;7764;51.430;6.840;2023-12-07T14:39:06;19.73;;;12.60;;